地図

経路データ

SID SEASON NUMBER BASIN SUBBASIN NAME ISO_TIME NATURE LAT LON WMO_WIND WMO_PRES WMO_AGENCY TRACK_TYPE DIST2LAND LANDFALL IFLAG USA_AGENCY USA_ATCF_ID USA_LAT USA_LON USA_RECORD USA_STATUS USA_WIND USA_PRES USA_SSHS USA_R34_NE USA_R34_SE USA_R34_SW USA_R34_NW USA_R50_NE USA_R50_SE USA_R50_SW USA_R50_NW USA_R64_NE USA_R64_SE USA_R64_SW USA_R64_NW USA_POCI USA_ROCI USA_RMW USA_EYE TOKYO_LAT TOKYO_LON TOKYO_GRADE TOKYO_WIND TOKYO_PRES TOKYO_R50_DIR TOKYO_R50_LONG TOKYO_R50_SHORT TOKYO_R30_DIR TOKYO_R30_LONG TOKYO_R30_SHORT TOKYO_LAND CMA_LAT CMA_LON CMA_CAT CMA_WIND CMA_PRES HKO_LAT HKO_LON HKO_CAT HKO_WIND HKO_PRES NEWDELHI_LAT NEWDELHI_LON NEWDELHI_GRADE NEWDELHI_WIND NEWDELHI_PRES NEWDELHI_CI NEWDELHI_DP NEWDELHI_POCI REUNION_LAT REUNION_LON REUNION_TYPE REUNION_WIND REUNION_PRES REUNION_TNUM REUNION_CI REUNION_RMW REUNION_R34_NE REUNION_R34_SE REUNION_R34_SW REUNION_R34_NW REUNION_R50_NE REUNION_R50_SE REUNION_R50_SW REUNION_R50_NW REUNION_R64_NE REUNION_R64_SE REUNION_R64_SW REUNION_R64_NW BOM_LAT BOM_LON BOM_TYPE BOM_WIND BOM_PRES BOM_TNUM BOM_CI BOM_RMW BOM_R34_NE BOM_R34_SE BOM_R34_SW BOM_R34_NW BOM_R50_NE BOM_R50_SE BOM_R50_SW BOM_R50_NW BOM_R64_NE BOM_R64_SE BOM_R64_SW BOM_R64_NW BOM_ROCI BOM_POCI BOM_EYE BOM_POS_METHOD BOM_PRES_METHOD NADI_LAT NADI_LON NADI_CAT NADI_WIND NADI_PRES WELLINGTON_LAT WELLINGTON_LON WELLINGTON_WIND WELLINGTON_PRES DS824_LAT DS824_LON DS824_STAGE DS824_WIND DS824_PRES TD9636_LAT TD9636_LON TD9636_STAGE TD9636_WIND TD9636_PRES TD9635_LAT TD9635_LON TD9635_WIND TD9635_PRES TD9635_ROCI NEUMANN_LAT NEUMANN_LON NEUMANN_CLASS NEUMANN_WIND NEUMANN_PRES MLC_LAT MLC_LON MLC_CLASS MLC_WIND MLC_PRES USA_GUST BOM_GUST BOM_GUST_PER REUNION_GUST REUNION_GUST_PER USA_SEAHGT USA_SEARAD_NE USA_SEARAD_SE USA_SEARAD_SW USA_SEARAD_NW STORM_SPEED STORM_DIR
1908278N13129 1908 43 WP MM NOT_NAMED 1908-10-03 16:00:00 NR 13.5000 128.600 main 366 288 __________O___ -1 13.5000 128.600 7 33 289
1908278N13129 1908 43 WP MM NOT_NAMED 1908-10-03 18:00:00 NR 13.8594 127.547 main 288 181 __________P___ -1 13.8594 127.547 7 32 289
1908278N13129 1908 43 WP MM NOT_NAMED 1908-10-03 21:00:00 NR 14.3782 126.007 main 181 99 __________P___ -1 14.3782 126.007 7 30 289
1908278N13129 1908 43 WP MM NOT_NAMED 1908-10-04 00:00:00 NR 14.8558 124.584 main 105 101 __________P___ -1 14.8558 124.584 7 27 289
1908278N13129 1908 43 WP MM NOT_NAMED 1908-10-04 03:00:00 NR 15.2755 123.354 main 134 127 __________P___ -1 15.2755 123.354 7 24 290
1908278N13129 1908 43 WP MM NOT_NAMED 1908-10-04 04:00:00 NR 15.4000 123.000 main 123 61 __________O___ -1 15.4000 123.000 7 20 290
1908278N13129 1908 43 WP MM NOT_NAMED 1908-10-04 06:00:00 NR 15.6247 122.384 main 61 0 __________P___ -1 15.6247 122.384 7 17 291
1908278N13129 1908 43 WP MM NOT_NAMED 1908-10-04 09:00:00 NR 15.9148 121.640 main 0 0 __________P___ -1 15.9148 121.640 7 14 293
1908278N13129 1908 43 WP MM NOT_NAMED 1908-10-04 12:00:00 NR 16.1708 121.018 main 0 0 __________P___ -1 16.1708 121.018 7 13 293
1908278N13129 1908 43 WP MM NOT_NAMED 1908-10-04 15:00:00 NR 16.4165 120.415 main 0 0 __________P___ -1 16.4165 120.415 7 13 293
1908278N13129 1908 43 WP MM NOT_NAMED 1908-10-04 16:00:00 NR 16.5000 120.200 main 15 15 __________O___ -1 16.5000 120.200 4 15 291
1908278N13129 1908 43 WP MM NOT_NAMED 1908-10-04 18:00:00 NR 16.6833 119.670 main 46 49 __________P___ -1 16.6833 119.670 4 17 289
1908278N13129 1908 43 WP MM NOT_NAMED 1908-10-04 21:00:00 NR 16.9584 118.845 main 132 132 __________P___ -1 16.9584 118.845 4 17 289
1908278N13129 1908 43 WP MM NOT_NAMED 1908-10-05 00:00:00 NR 17.2333 118.003 main 216 216 __________P___ -1 17.2333 118.003 4 17 289
1908278N13129 1908 43 WP MM NOT_NAMED 1908-10-05 03:00:00 NR 17.5083 117.171 main 307 317 __________P___ -1 17.5083 117.171 4 17 289
1908278N13129 1908 43 WP MM NOT_NAMED 1908-10-05 04:00:00 NR 17.6000 116.900 main 341 341 __________O___ -1 17.6000 116.900 4 16 290
1908278N13129 1908 43 WP MM NOT_NAMED 1908-10-05 06:00:00 NR 17.7795 116.393 main 398 398 __________P___ -1 17.7795 116.393 4 15 291
1908278N13129 1908 43 WP MM NOT_NAMED 1908-10-05 09:00:00 NR 18.0494 115.651 main 475 435 __________P___ -1 18.0494 115.651 4 15 291
1908278N13129 1908 43 WP MM NOT_NAMED 1908-10-05 12:00:00 NR 18.3233 114.914 main 435 354 __________P___ -1 18.3233 114.914 4 15 291
1908278N13129 1908 43 WP MM NOT_NAMED 1908-10-05 15:00:00 NR 18.6043 114.159 main 354 320 __________P___ -1 18.6043 114.159 4 16 291
1908278N13129 1908 43 WP MM NOT_NAMED 1908-10-05 16:00:00 NR 18.7000 113.900 main 320 253 __________O___ -1 18.7000 113.900 4 17 291
1908278N13129 1908 43 WP MM NOT_NAMED 1908-10-05 18:00:00 NR 18.9025 113.333 main 253 163 __________P___ -1 18.9025 113.333 4 18 291
1908278N13129 1908 43 WP MM NOT_NAMED 1908-10-05 21:00:00 NR 19.2127 112.456 main 163 63 __________P___ -1 19.2127 112.456 4 18 290
1908278N13129 1908 43 WP MM NOT_NAMED 1908-10-06 00:00:00 NR 19.5191 111.585 main 63 0 __________P___ -1 19.5191 111.585 4 17 290
1908278N13129 1908 43 WP MM NOT_NAMED 1908-10-06 03:00:00 NR 19.8091 110.758 main 0 0 __________P___ -1 19.8091 110.758 4 16 290
1908278N13129 1908 43 WP MM NOT_NAMED 1908-10-06 04:00:00 NR 19.9000 110.500 main 0 0 __________O___ -1 19.9000 110.500 4 14 291
1908278N13129 1908 43 WP MM NOT_NAMED 1908-10-06 06:00:00 NR 20.0654 110.039 main 15 10 __________P___ -1 20.0654 110.039 4 13 291
1908278N13129 1908 43 WP MM NOT_NAMED 1908-10-06 09:00:00 NR 20.2959 109.405 main 45 45 __________P___ -1 20.2959 109.405 4 12 291
1908278N13129 1908 43 WP MM NOT_NAMED 1908-10-06 12:00:00 NR 20.5137 108.806 main 94 84 __________P___ -1 20.5137 108.806 4 12 291
1908278N13129 1908 43 WP MM NOT_NAMED 1908-10-06 15:00:00 NR 20.7279 108.207 main 84 66 __________P___ -1 20.7279 108.207 4 12 291
1908278N13129 1908 43 WP MM NOT_NAMED 1908-10-06 16:00:00 NR 20.8000 108.000 main 66 23 __________O___ -1 20.8000 108.000 4 13 290
1908278N13129 1908 43 WP MM NOT_NAMED 1908-10-06 18:00:00 NR 20.9465 107.570 main 23 0 __________P___ -1 20.9465 107.570 4 13 290
1908278N13129 1908 43 WP MM NOT_NAMED 1908-10-06 21:00:00 NR 21.1707 106.890 main 0 0 __________P___ -1 21.1707 106.890 4 14 289
1908278N13129 1908 43 WP MM NOT_NAMED 1908-10-07 00:00:00 NR 21.3977 106.177 main 0 0 __________P___ -1 21.3977 106.177 4 14 289
1908278N13129 1908 43 WP MM NOT_NAMED 1908-10-07 03:00:00 NR 21.6248 105.446 main 0 0 __________P___ -1 21.6248 105.446 4 14 288
1908278N13129 1908 43 WP MM NOT_NAMED 1908-10-07 04:00:00 NR 21.7000 105.200 main 0 __________O___ -1 21.7000 105.200 7 14 288

デジタル台風データ・検索

IBTrACS Databaseについて

本データベースは、米国NOAAが公開する1842年以降の世界の熱帯低気圧のベストトラックデータアーカイブInternational Best Track Archive for Climate Stewardship (IBTrACS)を、ウェブで閲覧しやすい形式に変換したものです。

最終更新日:2021-11-26